sensor_id;sensor_type;location;lat;lon;timestamp;pressure;altitude;pressure_sealevel;temperature;humidity
26531;BME280;14201;43.188;24.160;2024-02-14T00:02:16;99323.44;;;8.26;89.36
26531;BME280;14201;43.188;24.160;2024-02-14T00:04:42;99342.56;;;8.28;89.90
26531;BME280;14201;43.188;24.160;2024-02-14T00:07:08;99349.22;;;8.23;89.60
26531;BME280;14201;43.188;24.160;2024-02-14T00:09:33;99345.44;;;8.35;88.58
26531;BME280;14201;43.188;24.160;2024-02-14T00:11:59;99352.19;;;8.31;88.86
26531;BME280;14201;43.188;24.160;2024-02-14T00:14:24;99340.31;;;8.36;89.02
26531;BME280;14201;43.188;24.160;2024-02-14T00:16:50;99367.63;;;8.28;89.21
26531;BME280;14201;43.188;24.160;2024-02-14T00:19:16;99364.78;;;8.23;89.41
26531;BME280;14201;43.188;24.160;2024-02-14T00:21:42;99370.91;;;8.24;88.18
26531;BME280;14201;43.188;24.160;2024-02-14T00:24:07;99366.19;;;8.35;87.03
26531;BME280;14201;43.188;24.160;2024-02-14T00:26:33;99368.50;;;8.28;86.97
26531;BME280;14201;43.188;24.160;2024-02-14T00:28:59;99379.16;;;8.35;87.88
26531;BME280;14201;43.188;24.160;2024-02-14T00:31:24;99379.16;;;8.35;87.54
26531;BME280;14201;43.188;24.160;2024-02-14T00:33:50;99386.53;;;8.43;87.15
26531;BME280;14201;43.188;24.160;2024-02-14T00:36:16;99379.16;;;8.35;86.20
26531;BME280;14201;43.188;24.160;2024-02-14T00:38:41;99385.69;;;8.44;85.67
26531;BME280;14201;43.188;24.160;2024-02-14T00:41:07;99370.13;;;8.44;86.17
26531;BME280;14201;43.188;24.160;2024-02-14T00:43:33;99378.56;;;8.40;85.04
26531;BME280;14201;43.188;24.160;2024-02-14T00:45:58;99387.63;;;8.48;85.57
26531;BME280;14201;43.188;24.160;2024-02-14T00:48:25;99382.31;;;8.45;85.58
26531;BME280;14201;43.188;24.160;2024-02-14T00:50:50;99383.88;;;8.42;85.72
26531;BME280;14201;43.188;24.160;2024-02-14T00:53:17;99394.44;;;8.46;85.46
26531;BME280;14201;43.188;24.160;2024-02-14T00:55:43;99388.22;;;8.43;85.34
26531;BME280;14201;43.188;24.160;2024-02-14T00:58:09;99393.69;;;8.49;85.10
26531;BME280;14201;43.188;24.160;2024-02-14T01:00:34;99391.16;;;8.51;84.93
26531;BME280;14201;43.188;24.160;2024-02-14T01:03:00;99397.28;;;8.51;84.88
26531;BME280;14201;43.188;24.160;2024-02-14T01:05:25;99387.63;;;8.48;84.58
26531;BME280;14201;43.188;24.160;2024-02-14T01:07:52;99393.66;;;8.47;85.07
26531;BME280;14201;43.188;24.160;2024-02-14T01:10:19;99389.69;;;8.38;85.27
26531;BME280;14201;43.188;24.160;2024-02-14T01:12:44;99396.28;;;8.31;85.32
26531;BME280;14201;43.188;24.160;2024-02-14T01:15:10;99392.72;;;8.47;84.58
26531;BME280;14201;43.188;24.160;2024-02-14T01:17:36;99396.03;;;8.62;84.10
26531;BME280;14201;43.188;24.160;2024-02-14T01:20:06;99395.75;;;8.56;83.68
26531;BME280;14201;43.188;24.160;2024-02-14T01:22:34;99399.19;;;8.55;83.70
26531;BME280;14201;43.188;24.160;2024-02-14T01:25:00;99388.50;;;8.49;84.66
26531;BME280;14201;43.188;24.160;2024-02-14T01:27:26;99399.31;;;8.58;84.16
26531;BME280;14201;43.188;24.160;2024-02-14T01:29:54;99398.22;;;8.53;84.32
26531;BME280;14201;43.188;24.160;2024-02-14T01:32:20;99401.63;;;8.52;84.65
26531;BME280;14201;43.188;24.160;2024-02-14T01:34:46;99404.66;;;8.61;83.74
26531;BME280;14201;43.188;24.160;2024-02-14T01:37:12;99406.06;;;8.55;84.24
26531;BME280;14201;43.188;24.160;2024-02-14T01:39:37;99397.75;;;8.62;84.18
26531;BME280;14201;43.188;24.160;2024-02-14T01:42:03;99406.97;;;8.55;83.78
26531;BME280;14201;43.188;24.160;2024-02-14T01:44:33;99404.63;;;8.42;84.93
26531;BME280;14201;43.188;24.160;2024-02-14T01:47:00;99404.44;;;8.39;85.76
26531;BME280;14201;43.188;24.160;2024-02-14T01:49:26;99414.41;;;8.47;85.70
26531;BME280;14201;43.188;24.160;2024-02-14T01:51:58;99413.81;;;8.53;85.69
26531;BME280;14201;43.188;24.160;2024-02-14T01:54:26;99412.84;;;8.51;86.03
26531;BME280;14201;43.188;24.160;2024-02-14T01:56:53;99415.38;;;8.50;85.96
26531;BME280;14201;43.188;24.160;2024-02-14T01:59:20;99416.41;;;8.53;85.83
26531;BME280;14201;43.188;24.160;2024-02-14T02:01:46;99415.97;;;8.44;85.63
26531;BME280;14201;43.188;24.160;2024-02-14T02:04:12;99422.56;;;8.55;85.67
26531;BME280;14201;43.188;24.160;2024-02-14T02:06:38;99429.13;;;8.48;85.78
26531;BME280;14201;43.188;24.160;2024-02-14T02:09:04;99421.50;;;8.34;85.13
26531;BME280;14201;43.188;24.160;2024-02-14T02:11:29;99424.50;;;8.41;85.43
26531;BME280;14201;43.188;24.160;2024-02-14T02:13:56;99431.06;;;8.53;84.53
26531;BME280;14201;43.188;24.160;2024-02-14T02:16:21;99429.50;;;8.56;84.89
26531;BME280;14201;43.188;24.160;2024-02-14T02:18:47;99433.72;;;8.54;84.87
26531;BME280;14201;43.188;24.160;2024-02-14T02:21:14;99435.66;;;8.40;85.11
26531;BME280;14201;43.188;24.160;2024-02-14T02:23:40;99437.09;;;8.52;84.86
26531;BME280;14201;43.188;24.160;2024-02-14T02:26:10;99450.78;;;8.49;84.72
26531;BME280;14201;43.188;24.160;2024-02-14T02:28:36;99444.44;;;8.42;85.38
26531;BME280;14201;43.188;24.160;2024-02-14T02:31:07;99448.75;;;8.42;85.17
26531;BME280;14201;43.188;24.160;2024-02-14T02:33:34;99452.69;;;8.35;84.92
26531;BME280;14201;43.188;24.160;2024-02-14T02:35:59;99446.03;;;8.40;84.39
26531;BME280;14201;43.188;24.160;2024-02-14T02:38:25;99466.03;;;8.41;84.55
26531;BME280;14201;43.188;24.160;2024-02-14T02:40:51;99467.91;;;8.27;83.94
26531;BME280;14201;43.188;24.160;2024-02-14T02:43:16;99461.41;;;8.36;84.60
26531;BME280;14201;43.188;24.160;2024-02-14T02:45:42;99470.66;;;8.31;84.55
26531;BME280;14201;43.188;24.160;2024-02-14T02:48:07;99461.59;;;8.40;84.08
26531;BME280;14201;43.188;24.160;2024-02-14T02:50:33;99464.72;;;8.33;84.30
26531;BME280;14201;43.188;24.160;2024-02-14T02:52:59;99462.88;;;8.31;84.76
26531;BME280;14201;43.188;24.160;2024-02-14T02:55:24;99477.75;;;8.35;84.76
26531;BME280;14201;43.188;24.160;2024-02-14T02:57:51;99479.22;;;8.29;84.91
26531;BME280;14201;43.188;24.160;2024-02-14T03:00:18;99474.28;;;8.34;83.85
26531;BME280;14201;43.188;24.160;2024-02-14T03:02:46;99483.13;;;8.38;83.61
26531;BME280;14201;43.188;24.160;2024-02-14T03:05:12;99478.94;;;8.05;85.11
26531;BME280;14201;43.188;24.160;2024-02-14T03:07:48;99483.91;;;8.19;85.23
26531;BME280;14201;43.188;24.160;2024-02-14T03:10:15;99489.91;;;8.18;84.66
26531;BME280;14201;43.188;24.160;2024-02-14T03:12:47;99491.13;;;8.24;84.02
26531;BME280;14201;43.188;24.160;2024-02-14T03:15:13;99490.06;;;8.21;85.12
26531;BME280;14201;43.188;24.160;2024-02-14T03:17:39;99486.59;;;8.20;85.13
26531;BME280;14201;43.188;24.160;2024-02-14T03:20:05;99483.66;;;8.14;84.37
26531;BME280;14201;43.188;24.160;2024-02-14T03:22:35;99491.41;;;8.13;84.68
26531;BME280;14201;43.188;24.160;2024-02-14T03:25:02;99497.25;;;8.08;84.55
26531;BME280;14201;43.188;24.160;2024-02-14T03:27:27;99506.88;;;8.11;84.70
26531;BME280;14201;43.188;24.160;2024-02-14T03:29:53;99502.50;;;8.10;84.57
26531;BME280;14201;43.188;24.160;2024-02-14T03:32:20;99511.25;;;8.12;84.73
26531;BME280;14201;43.188;24.160;2024-02-14T03:34:46;99518.22;;;8.13;85.10
26531;BME280;14201;43.188;24.160;2024-02-14T03:37:11;99525.03;;;8.11;84.83
26531;BME280;14201;43.188;24.160;2024-02-14T03:39:37;99521.63;;;8.12;84.72
26531;BME280;14201;43.188;24.160;2024-02-14T03:42:03;99535.06;;;8.21;84.10
26531;BME280;14201;43.188;24.160;2024-02-14T03:44:33;99525.56;;;8.22;83.21
26531;BME280;14201;43.188;24.160;2024-02-14T03:46:58;99536.09;;;8.25;82.69
26531;BME280;14201;43.188;24.160;2024-02-14T03:49:25;99535.44;;;8.29;82.52
26531;BME280;14201;43.188;24.160;2024-02-14T03:51:51;99532.31;;;8.18;83.58
26531;BME280;14201;43.188;24.160;2024-02-14T03:54:20;99529.56;;;8.15;83.14
26531;BME280;14201;43.188;24.160;2024-02-14T03:56:45;99537.66;;;8.21;82.98
26531;BME280;14201;43.188;24.160;2024-02-14T03:59:11;99531.09;;;8.12;82.88
26531;BME280;14201;43.188;24.160;2024-02-14T04:01:37;99541.75;;;8.16;83.52
26531;BME280;14201;43.188;24.160;2024-02-14T04:04:02;99541.88;;;8.19;83.22
26531;BME280;14201;43.188;24.160;2024-02-14T04:06:28;99546.75;;;8.13;83.28
26531;BME280;14201;43.188;24.160;2024-02-14T04:08:57;99543.34;;;8.14;83.34
26531;BME280;14201;43.188;24.160;2024-02-14T04:11:22;99550.47;;;8.18;82.26
26531;BME280;14201;43.188;24.160;2024-02-14T04:13:48;99552.41;;;8.22;82.31
26531;BME280;14201;43.188;24.160;2024-02-14T04:16:14;99551.84;;;8.28;81.81
26531;BME280;14201;43.188;24.160;2024-02-14T04:18:39;99555.81;;;8.21;82.71
26531;BME280;14201;43.188;24.160;2024-02-14T04:21:07;99548.47;;;8.13;82.30
26531;BME280;14201;43.188;24.160;2024-02-14T04:23:33;99561.34;;;8.11;82.64
26531;BME280;14201;43.188;24.160;2024-02-14T04:25:58;99559.34;;;8.05;82.33
26531;BME280;14201;43.188;24.160;2024-02-14T04:28:24;99551.72;;;8.08;81.88
26531;BME280;14201;43.188;24.160;2024-02-14T04:30:49;99561.00;;;8.21;81.81
26531;BME280;14201;43.188;24.160;2024-02-14T04:33:15;99560.13;;;8.21;80.90
26531;BME280;14201;43.188;24.160;2024-02-14T04:35:41;99565.50;;;8.07;81.56
26531;BME280;14201;43.188;24.160;2024-02-14T04:38:06;99554.72;;;8.16;80.99
26531;BME280;14201;43.188;24.160;2024-02-14T04:40:34;99571.38;;;8.21;80.85
26531;BME280;14201;43.188;24.160;2024-02-14T04:42:59;99578.94;;;8.17;81.22
26531;BME280;14201;43.188;24.160;2024-02-14T04:45:25;99572.41;;;8.07;81.41
26531;BME280;14201;43.188;24.160;2024-02-14T04:47:51;99576.03;;;8.11;80.56
26531;BME280;14201;43.188;24.160;2024-02-14T04:50:17;99582.59;;;8.04;80.72
26531;BME280;14201;43.188;24.160;2024-02-14T04:52:44;99581.72;;;7.87;81.13
26531;BME280;14201;43.188;24.160;2024-02-14T04:55:10;99585.06;;;8.01;80.23
26531;BME280;14201;43.188;24.160;2024-02-14T04:57:35;99592.19;;;8.05;80.01
26531;BME280;14201;43.188;24.160;2024-02-14T05:00:04;99589.81;;;8.09;80.00
26531;BME280;14201;43.188;24.160;2024-02-14T05:02:30;99602.63;;;8.06;80.22
26531;BME280;14201;43.188;24.160;2024-02-14T05:04:56;99594.03;;;8.07;79.84
26531;BME280;14201;43.188;24.160;2024-02-14T05:07:22;99618.06;;;8.21;79.59
26531;BME280;14201;43.188;24.160;2024-02-14T05:09:47;99623.44;;;8.24;78.41
26531;BME280;14201;43.188;24.160;2024-02-14T05:12:16;99624.88;;;8.19;78.73
26531;BME280;14201;43.188;24.160;2024-02-14T05:14:42;99631.47;;;8.13;79.35
26531;BME280;14201;43.188;24.160;2024-02-14T05:17:08;99646.13;;;8.12;79.93
26531;BME280;14201;43.188;24.160;2024-02-14T05:19:34;99655.22;;;8.20;79.14
26531;BME280;14201;43.188;24.160;2024-02-14T05:21:59;99672.41;;;8.18;79.56
26531;BME280;14201;43.188;24.160;2024-02-14T05:24:25;99678.41;;;8.17;79.22
26531;BME280;14201;43.188;24.160;2024-02-14T05:26:55;99686.19;;;8.17;79.77
26531;BME280;14201;43.188;24.160;2024-02-14T05:29:20;99691.53;;;8.20;79.68
26531;BME280;14201;43.188;24.160;2024-02-14T05:31:47;99696.09;;;8.24;79.63
26531;BME280;14201;43.188;24.160;2024-02-14T05:34:17;99696.09;;;8.24;80.01
26531;BME280;14201;43.188;24.160;2024-02-14T05:36:44;99711.00;;;8.28;80.00
26531;BME280;14201;43.188;24.160;2024-02-14T05:39:11;99718.59;;;8.25;80.10
26531;BME280;14201;43.188;24.160;2024-02-14T05:41:37;99722.81;;;8.23;80.99
26531;BME280;14201;43.188;24.160;2024-02-14T05:44:03;99731.25;;;8.19;80.91
26531;BME280;14201;43.188;24.160;2024-02-14T05:46:29;99718.16;;;8.16;81.23
26531;BME280;14201;43.188;24.160;2024-02-14T05:48:54;99726.91;;;8.18;81.63
26531;BME280;14201;43.188;24.160;2024-02-14T05:51:22;99729.63;;;8.21;81.40
26531;BME280;14201;43.188;24.160;2024-02-14T05:53:48;99736.63;;;8.22;80.66
26531;BME280;14201;43.188;24.160;2024-02-14T05:56:13;99740.09;;;8.23;80.98
26531;BME280;14201;43.188;24.160;2024-02-14T05:58:39;99736.13;;;8.13;81.34
26531;BME280;14201;43.188;24.160;2024-02-14T06:01:05;99743.31;;;8.02;82.40
26531;BME280;14201;43.188;24.160;2024-02-14T06:03:31;99747.94;;;8.08;82.45
26531;BME280;14201;43.188;24.160;2024-02-14T06:06:00;99747.94;;;8.08;81.61
26531;BME280;14201;43.188;24.160;2024-02-14T06:08:25;99748.59;;;8.04;82.58
26531;BME280;14201;43.188;24.160;2024-02-14T06:10:52;99743.72;;;7.94;83.09
26531;BME280;14201;43.188;24.160;2024-02-14T06:13:18;99755.88;;;7.95;83.94
26531;BME280;14201;43.188;24.160;2024-02-14T06:15:44;99757.16;;;7.86;83.74
26531;BME280;14201;43.188;24.160;2024-02-14T06:18:10;99761.66;;;7.89;83.53
26531;BME280;14201;43.188;24.160;2024-02-14T06:20:36;99759.19;;;7.92;82.92
26531;BME280;14201;43.188;24.160;2024-02-14T06:23:03;99765.53;;;7.97;82.43
26531;BME280;14201;43.188;24.160;2024-02-14T06:25:29;99765.75;;;7.85;82.41
26531;BME280;14201;43.188;24.160;2024-02-14T06:27:54;99771.75;;;7.84;83.09
26531;BME280;14201;43.188;24.160;2024-02-14T06:30:20;99777.03;;;7.86;83.15
26531;BME280;14201;43.188;24.160;2024-02-14T06:32:46;99779.94;;;7.92;82.58
26531;BME280;14201;43.188;24.160;2024-02-14T06:35:11;99782.63;;;7.94;81.65
26531;BME280;14201;43.188;24.160;2024-02-14T06:37:37;99780.69;;;7.89;82.06
26531;BME280;14201;43.188;24.160;2024-02-14T06:40:04;99789.84;;;7.99;81.49
26531;BME280;14201;43.188;24.160;2024-02-14T06:42:34;99796.75;;;7.99;81.20
26531;BME280;14201;43.188;24.160;2024-02-14T06:44:59;99796.81;;;8.00;79.25
26531;BME280;14201;43.188;24.160;2024-02-14T06:47:25;99796.66;;;7.97;80.49
26531;BME280;14201;43.188;24.160;2024-02-14T06:49:58;99809.88;;;8.02;80.25
26531;BME280;14201;43.188;24.160;2024-02-14T06:52:24;99806.41;;;8.01;79.51
26531;BME280;14201;43.188;24.160;2024-02-14T06:54:50;99802.56;;;7.95;79.53
26531;BME280;14201;43.188;24.160;2024-02-14T06:57:15;99813.09;;;7.98;79.78
26531;BME280;14201;43.188;24.160;2024-02-14T06:59:41;99808.72;;;7.97;79.63
26531;BME280;14201;43.188;24.160;2024-02-14T07:02:07;99815.88;;;8.01;79.74
26531;BME280;14201;43.188;24.160;2024-02-14T07:04:33;99826.41;;;8.04;80.08
26531;BME280;14201;43.188;24.160;2024-02-14T07:06:59;99830.25;;;8.11;79.27
26531;BME280;14201;43.188;24.160;2024-02-14T07:09:25;99835.59;;;8.14;79.79
26531;BME280;14201;43.188;24.160;2024-02-14T07:11:51;99834.63;;;8.12;79.43
26531;BME280;14201;43.188;24.160;2024-02-14T07:14:19;99838.72;;;8.08;79.87
26531;BME280;14201;43.188;24.160;2024-02-14T07:16:45;99849.94;;;8.07;80.10
26531;BME280;14201;43.188;24.160;2024-02-14T07:19:10;99851.00;;;8.11;80.34
26531;BME280;14201;43.188;24.160;2024-02-14T07:21:36;99854.91;;;8.19;79.56
26531;BME280;14201;43.188;24.160;2024-02-14T07:24:06;99853.84;;;8.15;79.19
26531;BME280;14201;43.188;24.160;2024-02-14T07:26:32;99858.25;;;8.16;79.85
26531;BME280;14201;43.188;24.160;2024-02-14T07:28:57;99859.81;;;8.14;80.62
26531;BME280;14201;43.188;24.160;2024-02-14T07:31:23;99860.31;;;8.07;80.98
26531;BME280;14201;43.188;24.160;2024-02-14T07:33:49;99863.47;;;8.18;80.08
26531;BME280;14201;43.188;24.160;2024-02-14T07:36:18;99865.38;;;8.20;80.24
26531;BME280;14201;43.188;24.160;2024-02-14T07:38:44;99870.91;;;8.26;80.33
26531;BME280;14201;43.188;24.160;2024-02-14T07:41:09;99879.16;;;8.19;80.50
26531;BME280;14201;43.188;24.160;2024-02-14T07:43:35;99868.00;;;8.05;81.14
26531;BME280;14201;43.188;24.160;2024-02-14T07:46:02;99879.00;;;8.16;81.12
26531;BME280;14201;43.188;24.160;2024-02-14T07:48:27;99888.03;;;8.08;81.13
26531;BME280;14201;43.188;24.160;2024-02-14T07:50:53;99880.75;;;8.17;80.80
26531;BME280;14201;43.188;24.160;2024-02-14T07:53:18;99879.97;;;8.18;80.54
26531;BME280;14201;43.188;24.160;2024-02-14T07:55:44;99885.50;;;8.24;79.50
26531;BME280;14201;43.188;24.160;2024-02-14T07:58:10;99880.31;;;8.24;78.90
26531;BME280;14201;43.188;24.160;2024-02-14T08:00:36;99896.75;;;8.25;79.28
26531;BME280;14201;43.188;24.160;2024-02-14T08:03:01;99895.22;;;8.28;79.32
26531;BME280;14201;43.188;24.160;2024-02-14T08:05:29;99898.81;;;8.31;79.88
26531;BME280;14201;43.188;24.160;2024-02-14T08:07:54;99893.53;;;8.29;79.02
26531;BME280;14201;43.188;24.160;2024-02-14T08:10:20;99902.59;;;8.21;79.44
26531;BME280;14201;43.188;24.160;2024-02-14T08:12:45;99899.09;;;8.20;80.04
26531;BME280;14201;43.188;24.160;2024-02-14T08:15:12;99901.00;;;8.08;80.18
26531;BME280;14201;43.188;24.160;2024-02-14T08:17:38;99909.59;;;8.07;80.41
26531;BME280;14201;43.188;24.160;2024-02-14T08:20:04;99897.59;;;8.09;81.15
26531;BME280;14201;43.188;24.160;2024-02-14T08:22:30;99915.53;;;7.89;82.41
26531;BME280;14201;43.188;24.160;2024-02-14T08:24:56;99906.38;;;7.96;83.23
26531;BME280;14201;43.188;24.160;2024-02-14T08:27:22;99907.34;;;8.13;82.73
26531;BME280;14201;43.188;24.160;2024-02-14T08:29:48;99921.47;;;8.18;81.63
26531;BME280;14201;43.188;24.160;2024-02-14T08:32:13;99905.91;;;8.18;82.45
26531;BME280;14201;43.188;24.160;2024-02-14T08:34:39;99917.91;;;8.16;82.33
26531;BME280;14201;43.188;24.160;2024-02-14T08:37:04;99923.09;;;8.16;82.10
26531;BME280;14201;43.188;24.160;2024-02-14T08:39:30;99929.06;;;8.15;82.29
26531;BME280;14201;43.188;24.160;2024-02-14T08:41:56;99935.69;;;8.25;80.95
26531;BME280;14201;43.188;24.160;2024-02-14T08:44:22;99926.16;;;7.94;81.80
26531;BME280;14201;43.188;24.160;2024-02-14T08:46:47;99942.00;;;7.84;81.55
26531;BME280;14201;43.188;24.160;2024-02-14T08:49:14;99933.16;;;7.80;82.40
26531;BME280;14201;43.188;24.160;2024-02-14T08:51:40;99943.88;;;7.86;81.90
26531;BME280;14201;43.188;24.160;2024-02-14T08:54:07;99940.56;;;7.74;81.53
26531;BME280;14201;43.188;24.160;2024-02-14T08:56:33;99944.50;;;7.82;81.94
26531;BME280;14201;43.188;24.160;2024-02-14T08:59:00;99941.63;;;7.63;82.00
26531;BME280;14201;43.188;24.160;2024-02-14T09:01:28;99953.69;;;7.77;82.63
26531;BME280;14201;43.188;24.160;2024-02-14T09:03:54;99955.31;;;7.90;82.29
26531;BME280;14201;43.188;24.160;2024-02-14T09:06:21;99953.25;;;7.99;83.27
26531;BME280;14201;43.188;24.160;2024-02-14T09:08:46;99953.78;;;7.94;85.04
26531;BME280;14201;43.188;24.160;2024-02-14T09:11:12;99952.97;;;8.09;84.20
26531;BME280;14201;43.188;24.160;2024-02-14T09:13:38;99960.13;;;8.14;83.48
26531;BME280;14201;43.188;24.160;2024-02-14T09:16:08;99955.81;;;8.14;83.92
26531;BME280;14201;43.188;24.160;2024-02-14T09:18:34;99959.31;;;8.15;85.51
26531;BME280;14201;43.188;24.160;2024-02-14T09:21:00;99952.63;;;8.18;85.35
26531;BME280;14201;43.188;24.160;2024-02-14T09:23:28;99962.25;;;8.36;85.05
26531;BME280;14201;43.188;24.160;2024-02-14T09:25:55;99967.44;;;8.36;83.88
26531;BME280;14201;43.188;24.160;2024-02-14T09:28:22;99973.53;;;8.51;82.90
26531;BME280;14201;43.188;24.160;2024-02-14T09:30:48;99962.56;;;8.57;82.92
26531;BME280;14201;43.188;24.160;2024-02-14T09:33:14;99969.31;;;8.53;82.49
26531;BME280;14201;43.188;24.160;2024-02-14T09:35:39;99969.22;;;8.52;83.17
26531;BME280;14201;43.188;24.160;2024-02-14T09:38:10;99957.53;;;8.60;84.66
26531;BME280;14201;43.188;24.160;2024-02-14T09:40:39;99960.88;;;8.57;85.34
26531;BME280;14201;43.188;24.160;2024-02-14T09:43:09;99958.72;;;8.35;86.21
26531;BME280;14201;43.188;24.160;2024-02-14T09:45:39;99965.00;;;8.39;88.00
26531;BME280;14201;43.188;24.160;2024-02-14T09:48:07;99956.22;;;8.37;86.19
26531;BME280;14201;43.188;24.160;2024-02-14T09:50:34;99949.25;;;8.51;84.36
26531;BME280;14201;43.188;24.160;2024-02-14T09:53:02;99951.59;;;8.46;84.28
26531;BME280;14201;43.188;24.160;2024-02-14T09:55:27;99955.81;;;8.44;83.79
26531;BME280;14201;43.188;24.160;2024-02-14T09:57:54;99950.94;;;8.50;83.32
26531;BME280;14201;43.188;24.160;2024-02-14T10:00:21;99951.47;;;8.59;81.29
26531;BME280;14201;43.188;24.160;2024-02-14T10:02:47;99950.00;;;8.64;80.32
26531;BME280;14201;43.188;24.160;2024-02-14T10:05:13;99939.47;;;8.78;81.68
26531;BME280;14201;43.188;24.160;2024-02-14T10:07:43;99945.63;;;8.63;81.85
26531;BME280;14201;43.188;24.160;2024-02-14T10:10:09;99931.06;;;8.51;80.19
26531;BME280;14201;43.188;24.160;2024-02-14T10:12:35;99929.84;;;8.44;79.57
26531;BME280;14201;43.188;24.160;2024-02-14T10:15:01;99939.78;;;8.51;80.80
26531;BME280;14201;43.188;24.160;2024-02-14T10:17:27;99929.53;;;8.39;80.48
26531;BME280;14201;43.188;24.160;2024-02-14T10:20:01;99924.50;;;8.26;82.21
26531;BME280;14201;43.188;24.160;2024-02-14T10:22:37;99925.59;;;8.61;83.33
26531;BME280;14201;43.188;24.160;2024-02-14T10:25:03;99924.38;;;8.71;83.63
26531;BME280;14201;43.188;24.160;2024-02-14T10:27:30;99928.00;;;8.74;82.70
26531;BME280;14201;43.188;24.160;2024-02-14T10:29:59;99921.97;;;8.90;82.24
26531;BME280;14201;43.188;24.160;2024-02-14T10:32:25;99927.53;;;8.81;81.24
26531;BME280;14201;43.188;24.160;2024-02-14T10:34:50;99922.75;;;8.73;80.52
26531;BME280;14201;43.188;24.160;2024-02-14T10:37:17;99920.50;;;8.95;79.99
26531;BME280;14201;43.188;24.160;2024-02-14T10:39:46;99919.34;;;9.06;79.90
26531;BME280;14201;43.188;24.160;2024-02-14T10:42:13;99910.19;;;9.13;78.11
26531;BME280;14201;43.188;24.160;2024-02-14T10:44:39;99895.00;;;9.04;77.46
26531;BME280;14201;43.188;24.160;2024-02-14T10:47:06;99914.72;;;9.01;77.99
26531;BME280;14201;43.188;24.160;2024-02-14T10:49:37;99914.75;;;9.17;78.00
26531;BME280;14201;43.188;24.160;2024-02-14T10:52:06;99907.19;;;9.05;74.84
26531;BME280;14201;43.188;24.160;2024-02-14T10:54:35;99910.25;;;9.31;75.55
26531;BME280;14201;43.188;24.160;2024-02-14T10:57:04;99908.03;;;9.39;75.08
26531;BME280;14201;43.188;24.160;2024-02-14T10:59:33;99911.03;;;9.46;74.17
26531;BME280;14201;43.188;24.160;2024-02-14T11:02:00;99912.53;;;9.59;73.06
26531;BME280;14201;43.188;24.160;2024-02-14T11:04:26;99904.03;;;9.45;71.87
26531;BME280;14201;43.188;24.160;2024-02-14T11:06:53;99899.47;;;9.58;71.89
26531;BME280;14201;43.188;24.160;2024-02-14T11:09:20;99906.16;;;9.71;70.91
26531;BME280;14201;43.188;24.160;2024-02-14T11:11:46;99908.69;;;9.69;71.95
26531;BME280;14201;43.188;24.160;2024-02-14T11:14:23;99909.06;;;9.77;72.74
26531;BME280;14201;43.188;24.160;2024-02-14T11:16:52;99900.09;;;9.88;71.30
26531;BME280;14201;43.188;24.160;2024-02-14T11:19:17;99892.75;;;9.79;70.41
26531;BME280;14201;43.188;24.160;2024-02-14T11:21:46;99901.63;;;9.84;70.01
26531;BME280;14201;43.188;24.160;2024-02-14T11:24:14;99901.59;;;9.83;70.42
26531;BME280;14201;43.188;24.160;2024-02-14T11:26:50;99903.91;;;9.95;70.24
26531;BME280;14201;43.188;24.160;2024-02-14T11:29:18;99898.31;;;9.87;70.72
26531;BME280;14201;43.188;24.160;2024-02-14T11:31:44;99906.25;;;9.90;69.57
26531;BME280;14201;43.188;24.160;2024-02-14T11:34:14;99894.00;;;9.88;70.12
26531;BME280;14201;43.188;24.160;2024-02-14T11:36:44;99900.72;;;10.00;69.73
26531;BME280;14201;43.188;24.160;2024-02-14T11:39:11;99903.22;;;9.99;68.12
26531;BME280;14201;43.188;24.160;2024-02-14T11:41:40;99902.75;;;10.08;67.25
26531;BME280;14201;43.188;24.160;2024-02-14T11:44:08;99897.28;;;10.01;68.42
26531;BME280;14201;43.188;24.160;2024-02-14T11:46:35;99890.50;;;10.05;68.95
26531;BME280;14201;43.188;24.160;2024-02-14T11:49:02;99891.75;;;10.13;68.85
26531;BME280;14201;43.188;24.160;2024-02-14T11:51:29;99892.53;;;10.11;66.67
26531;BME280;14201;43.188;24.160;2024-02-14T11:53:59;99894.59;;;10.18;69.09
26531;BME280;14201;43.188;24.160;2024-02-14T11:56:36;99889.59;;;10.22;69.27
26531;BME280;14201;43.188;24.160;2024-02-14T11:59:03;99894.53;;;10.34;67.38
26531;BME280;14201;43.188;24.160;2024-02-14T12:01:36;99893.00;;;10.21;67.16
26531;BME280;14201;43.188;24.160;2024-02-14T12:04:04;99885.88;;;10.17;67.25
26531;BME280;14201;43.188;24.160;2024-02-14T12:06:31;99884.31;;;10.21;67.41
26531;BME280;14201;43.188;24.160;2024-02-14T12:09:03;99889.44;;;10.19;66.03
26531;BME280;14201;43.188;24.160;2024-02-14T12:11:36;99881.19;;;10.28;67.14
26531;BME280;14201;43.188;24.160;2024-02-14T12:14:06;99878.69;;;10.30;67.38
26531;BME280;14201;43.188;24.160;2024-02-14T12:16:36;99877.44;;;10.39;65.18
26531;BME280;14201;43.188;24.160;2024-02-14T12:19:15;99876.75;;;10.43;66.41
26531;BME280;14201;43.188;24.160;2024-02-14T12:21:42;99874.59;;;10.35;66.03
26531;BME280;14201;43.188;24.160;2024-02-14T12:24:11;99874.47;;;10.32;66.38
26531;BME280;14201;43.188;24.160;2024-02-14T12:26:40;99879.00;;;10.18;64.35
26531;BME280;14201;43.188;24.160;2024-02-14T12:29:07;99872.81;;;10.34;65.78
26531;BME280;14201;43.188;24.160;2024-02-14T12:31:34;99878.22;;;10.20;64.46
26531;BME280;14201;43.188;24.160;2024-02-14T12:34:02;99871.66;;;10.29;65.85
26531;BME280;14201;43.188;24.160;2024-02-14T12:36:33;99874.38;;;10.30;65.19
26531;BME280;14201;43.188;24.160;2024-02-14T12:38:59;99874.19;;;10.27;63.84
26531;BME280;14201;43.188;24.160;2024-02-14T12:41:31;99882.34;;;10.33;64.61
26531;BME280;14201;43.188;24.160;2024-02-14T12:43:58;99877.44;;;10.39;65.70
26531;BME280;14201;43.188;24.160;2024-02-14T12:46:24;99886.72;;;10.34;64.97
26531;BME280;14201;43.188;24.160;2024-02-14T12:48:49;99879.47;;;10.47;64.23
26531;BME280;14201;43.188;24.160;2024-02-14T12:51:16;99882.06;;;10.47;64.99
26531;BME280;14201;43.188;24.160;2024-02-14T12:53:41;99886.84;;;10.55;65.53
26531;BME280;14201;43.188;24.160;2024-02-14T12:56:08;99888.59;;;10.56;65.38
26531;BME280;14201;43.188;24.160;2024-02-14T12:58:33;99888.84;;;10.61;64.71